createdAt,value
2018-12-27T00:02:55.241Z,51.8
2018-12-27T00:07:52.314Z,51.8
2018-12-27T00:12:49.967Z,51.8
2018-12-27T00:17:47.927Z,51.8
2018-12-27T00:22:45.828Z,51.8
2018-12-27T00:27:43.801Z,51.8
2018-12-27T00:32:41.523Z,51.8
2018-12-27T00:37:39.353Z,51.8
2018-12-27T00:42:37.156Z,51.8
2018-12-27T00:47:35.150Z,51.8
2018-12-27T00:52:32.663Z,51.8
2018-12-27T00:57:30.392Z,51.8
2018-12-27T01:02:28.260Z,51.8
2018-12-27T01:07:26.140Z,51.8
2018-12-27T01:12:23.987Z,51.8
2018-12-27T01:17:21.980Z,51.8
2018-12-27T01:22:19.894Z,51.7
2018-12-27T01:27:17.730Z,51.7
2018-12-27T01:32:15.429Z,51.8
2018-12-27T01:37:12.840Z,51.8
2018-12-27T01:42:10.962Z,51.8
2018-12-27T01:47:08.960Z,51.8
2018-12-27T01:52:06.438Z,51.8
2018-12-27T01:57:04.433Z,51.7
2018-12-27T02:02:01.840Z,51.7
2018-12-27T02:06:59.424Z,51.7
2018-12-27T02:11:57.258Z,51.7
2018-12-27T02:16:55.071Z,51.7
2018-12-27T02:21:52.559Z,51.7
2018-12-27T02:26:50.500Z,51.7
2018-12-27T02:31:48.088Z,51.7
2018-12-27T02:36:45.437Z,51.7
2018-12-27T02:41:43.259Z,51.7
2018-12-27T02:46:41.219Z,51.7
2018-12-27T02:51:38.888Z,51.7
2018-12-27T02:56:36.763Z,51.7
2018-12-27T03:01:34.596Z,51.7
2018-12-27T03:06:32.557Z,51.7
2018-12-27T03:11:30.414Z,51.7
2018-12-27T03:16:28.394Z,51.7
2018-12-27T03:21:26.274Z,51.7
2018-12-27T03:26:23.508Z,51.7
2018-12-27T03:31:20.886Z,51.7
2018-12-27T03:36:18.735Z,51.7
2018-12-27T03:41:16.763Z,51.7
2018-12-27T03:46:14.128Z,51.7
2018-12-27T03:51:11.968Z,51.7
2018-12-27T03:56:09.879Z,51.7
2018-12-27T04:01:07.888Z,51.7
2018-12-27T04:06:05.743Z,51.7
2018-12-27T04:11:03.527Z,51.7
2018-12-27T04:16:01.342Z,51.6
2018-12-27T04:20:59.287Z,51.7
2018-12-27T04:25:57.217Z,51.6
2018-12-27T04:30:55.088Z,51.6
2018-12-27T04:35:52.831Z,51.6
2018-12-27T04:40:50.653Z,51.7
2018-12-27T04:45:48.408Z,51.6
2018-12-27T04:50:46.123Z,51.7
2018-12-27T04:55:43.940Z,51.6
2018-12-27T05:00:41.910Z,51.6
2018-12-27T05:05:39.426Z,51.7
2018-12-27T05:10:37.393Z,51.6
2018-12-27T05:15:35.404Z,51.6
2018-12-27T05:20:33.268Z,51.6
2018-12-27T05:25:31.282Z,51.7
2018-12-27T05:30:29.059Z,51.6
2018-12-27T05:35:26.784Z,51.7
2018-12-27T05:40:24.671Z,51.7
2018-12-27T05:45:22.731Z,51.7
2018-12-27T05:50:20.405Z,51.7
2018-12-27T05:55:18.592Z,51.7
2018-12-27T06:00:15.963Z,51.7
2018-12-27T06:05:14.109Z,51.7
2018-12-27T06:10:11.411Z,51.7
2018-12-27T06:15:09.391Z,51.7
2018-12-27T06:20:06.896Z,51.7
2018-12-27T06:25:04.857Z,51.7
2018-12-27T06:30:02.824Z,51.7
2018-12-27T06:35:00.847Z,51.8
2018-12-27T06:39:58.934Z,51.8
2018-12-27T06:44:56.235Z,51.8
2018-12-27T06:49:54.263Z,51.8
2018-12-27T06:54:52.170Z,51.8
2018-12-27T06:59:50.183Z,51.8
2018-12-27T07:04:49.307Z,51.8
2018-12-27T07:09:46.571Z,51.8
2018-12-27T07:14:44.232Z,51.8
2018-12-27T07:19:42.381Z,51.8
2018-12-27T07:24:40.262Z,51.8
2018-12-27T07:29:37.825Z,51.8
2018-12-27T07:34:35.442Z,51.8
2018-12-27T07:39:33.522Z,51.8
2018-12-27T07:44:31.489Z,51.9
2018-12-27T07:49:28.809Z,51.8
2018-12-27T07:54:26.401Z,51.9
2018-12-27T07:59:24.006Z,51.9
2018-12-27T08:04:21.829Z,51.9
2018-12-27T08:09:19.844Z,51.9
2018-12-27T08:14:17.610Z,51.9
2018-12-27T08:19:15.460Z,51.9
2018-12-27T08:24:13.458Z,52
2018-12-27T08:29:11.374Z,51.9
2018-12-27T08:34:08.766Z,52
2018-12-27T08:39:06.686Z,51.9
2018-12-27T08:44:04.662Z,52
2018-12-27T08:49:02.308Z,52
2018-12-27T08:53:59.809Z,52
2018-12-27T08:58:57.694Z,52
2018-12-27T09:03:55.084Z,52
2018-12-27T09:08:52.745Z,52
2018-12-27T09:13:50.786Z,52
2018-12-27T09:18:48.923Z,52
2018-12-27T09:23:46.697Z,52.1
2018-12-27T09:28:44.722Z,52.1
2018-12-27T09:33:42.700Z,52.1
2018-12-27T09:38:40.609Z,52.1
2018-12-27T09:43:38.453Z,52.1
2018-12-27T09:48:35.982Z,52.2
2018-12-27T09:53:34.243Z,52.2
2018-12-27T09:58:32.143Z,52.1
2018-12-27T10:03:30.283Z,52.2
2018-12-27T10:08:27.925Z,52.2
2018-12-27T10:13:25.881Z,52.2
2018-12-27T10:18:23.733Z,52.2
2018-12-27T10:23:20.939Z,52.2
2018-12-27T10:28:18.491Z,52.2
2018-12-27T10:33:16.359Z,52.1
2018-12-27T10:38:13.944Z,52.1
2018-12-27T10:43:11.982Z,52.1
2018-12-27T10:48:09.872Z,52.2
2018-12-27T10:53:07.197Z,52.2
2018-12-27T10:58:04.805Z,52.2
2018-12-27T11:03:02.663Z,52.2
2018-12-27T11:08:00.633Z,52.2
2018-12-27T11:12:58.694Z,52.1
2018-12-27T11:17:56.370Z,52.2
2018-12-27T11:22:54.495Z,52.1
2018-12-27T11:27:52.105Z,52.2
2018-12-27T11:32:50.209Z,52.2
2018-12-27T11:37:48.125Z,52.2
2018-12-27T11:42:46.335Z,52.2
2018-12-27T11:47:44.119Z,52.2
2018-12-27T11:52:42.133Z,52.2
2018-12-27T11:57:39.955Z,52.2
2018-12-27T12:02:37.992Z,52.2
2018-12-27T12:07:36.079Z,52.2
2018-12-27T12:12:34.142Z,52.2
2018-12-27T12:17:31.970Z,52.2
2018-12-27T12:22:30.020Z,52.2
2018-12-27T12:27:27.972Z,52.2
2018-12-27T12:32:26.175Z,52.2
2018-12-27T12:37:23.611Z,52.2
2018-12-27T12:42:33.335Z,52.2
2018-12-27T12:47:29.266Z,52.1
2018-12-27T12:52:27.171Z,52.2
2018-12-27T12:57:25.106Z,52.2
2018-12-27T13:02:22.766Z,52.2
2018-12-27T13:07:20.589Z,52.2
2018-12-27T13:12:18.518Z,52.2
2018-12-27T13:17:16.452Z,52.2
2018-12-27T13:22:14.367Z,52.3
2018-12-27T13:27:12.237Z,52.3
2018-12-27T13:32:10.366Z,52.3
2018-12-27T13:37:08.459Z,52.3
2018-12-27T13:42:06.503Z,52.3
2018-12-27T13:47:04.905Z,52.4
2018-12-27T13:52:02.299Z,52.3
2018-12-27T13:57:00.283Z,52.4
2018-12-27T14:01:57.878Z,52.4
2018-12-27T14:06:55.574Z,52.4
2018-12-27T14:11:53.582Z,52.4
2018-12-27T14:16:51.500Z,52.5
2018-12-27T14:21:49.675Z,52.4
2018-12-27T14:26:47.525Z,52.4
2018-12-27T14:31:45.313Z,52.5
2018-12-27T14:36:43.231Z,52.5
2018-12-27T14:41:41.200Z,52.5
2018-12-27T14:46:39.316Z,52.5
2018-12-27T14:51:37.354Z,52.5
2018-12-27T14:56:35.239Z,52.6
2018-12-27T15:01:33.389Z,52.6
2018-12-27T15:06:31.311Z,52.6
2018-12-27T15:11:29.143Z,52.6
2018-12-27T15:16:27.153Z,52.6
2018-12-27T15:21:25.210Z,52.7
2018-12-27T15:26:23.116Z,52.7
2018-12-27T15:31:20.818Z,52.7
2018-12-27T15:36:18.475Z,52.8
2018-12-27T15:41:16.523Z,52.7
2018-12-27T15:46:14.386Z,52.7
2018-12-27T15:51:12.373Z,52.8
2018-12-27T15:56:10.395Z,52.7
2018-12-27T16:01:08.092Z,52.8
2018-12-27T16:06:05.466Z,52.7
2018-12-27T16:11:03.534Z,52.8
2018-12-27T16:16:01.602Z,52.7
2018-12-27T16:20:59.609Z,52.7
2018-12-27T16:25:57.534Z,52.7
2018-12-27T16:30:55.579Z,52.8
2018-12-27T16:35:53.351Z,52.7
2018-12-27T16:40:51.255Z,52.6
2018-12-27T16:45:49.231Z,52.8
2018-12-27T16:50:47.347Z,52.8
2018-12-27T16:55:45.368Z,52.8
2018-12-27T17:00:42.886Z,52.7
2018-12-27T17:05:40.445Z,52.7
2018-12-27T17:10:38.735Z,52.7
2018-12-27T17:15:37.205Z,52.7
2018-12-27T17:20:35.240Z,52.7
2018-12-27T17:25:32.865Z,52.7
2018-12-27T17:30:30.676Z,52.7
2018-12-27T17:35:28.442Z,52.8
2018-12-27T17:40:25.876Z,52.8
2018-12-27T17:45:23.927Z,52.7
2018-12-27T17:50:21.512Z,52.7
2018-12-27T17:55:19.378Z,52.7
2018-12-27T18:00:16.910Z,52.7
2018-12-27T18:05:14.694Z,52.7
2018-12-27T18:10:12.714Z,52.7
2018-12-27T18:15:10.407Z,52.6
2018-12-27T18:20:08.515Z,52.5
2018-12-27T18:25:06.632Z,52.6
2018-12-27T18:30:04.193Z,52.6
2018-12-27T18:35:01.839Z,52.6
2018-12-27T18:39:59.823Z,52.5
2018-12-27T18:44:57.206Z,52.5
2018-12-27T18:49:54.567Z,52.5
2018-12-27T18:54:52.297Z,52.5
2018-12-27T18:59:49.659Z,52.5
2018-12-27T19:04:47.620Z,52.5
2018-12-27T19:09:45.897Z,52.4
2018-12-27T19:14:45.434Z,52.4
2018-12-27T19:19:43.002Z,52.4
2018-12-27T19:24:40.934Z,52.4
2018-12-27T19:29:38.609Z,52.4
2018-12-27T19:34:36.503Z,52.4
2018-12-27T19:39:34.295Z,52.4
2018-12-27T19:44:32.499Z,52.4
2018-12-27T19:49:30.373Z,52.4
2018-12-27T19:54:32.269Z,52.3
2018-12-27T19:59:29.414Z,52.3
2018-12-27T20:04:27.335Z,52.3
2018-12-27T20:09:25.012Z,52.3
2018-12-27T20:14:23.068Z,52.3
2018-12-27T20:19:21.246Z,52.3
2018-12-27T20:24:19.095Z,52.3
2018-12-27T20:29:16.801Z,52.3
2018-12-27T20:34:14.324Z,52.3
2018-12-27T20:39:11.878Z,52.3
2018-12-27T20:44:09.994Z,52.3
2018-12-27T20:49:07.141Z,52.2
2018-12-27T20:54:05.201Z,52.3
2018-12-27T20:59:03.239Z,52.2
2018-12-27T21:04:01.063Z,52.2
2018-12-27T21:08:59.063Z,52.2
2018-12-27T21:13:57.170Z,52.2
2018-12-27T21:18:55.196Z,52.3
2018-12-27T21:23:53.259Z,52.2
2018-12-27T21:28:51.687Z,52.2
2018-12-27T21:33:49.542Z,52.2
2018-12-27T21:38:47.327Z,52.2
2018-12-27T21:43:45.290Z,52.2
2018-12-27T21:48:43.264Z,52.2
2018-12-27T21:53:41.021Z,52.2
2018-12-27T21:58:39.053Z,52.2
2018-12-27T22:03:36.887Z,52.2
2018-12-27T22:08:34.847Z,52.2
2018-12-27T22:13:32.967Z,52.2
2018-12-27T22:18:30.422Z,52.2
2018-12-27T22:23:28.536Z,52.2
2018-12-27T22:28:26.598Z,52.2
2018-12-27T22:33:24.313Z,52.2
2018-12-27T22:38:21.748Z,52.1
2018-12-27T22:43:19.636Z,52.1
2018-12-27T22:48:17.531Z,52.1
2018-12-27T22:53:15.446Z,52.1
2018-12-27T22:58:13.450Z,52.1
2018-12-27T23:03:10.652Z,52.1
2018-12-27T23:08:08.408Z,52.1
2018-12-27T23:13:06.595Z,52.1
2018-12-27T23:18:04.412Z,52.1
2018-12-27T23:23:02.457Z,52.1
2018-12-27T23:28:00.192Z,52.1
2018-12-27T23:32:58.059Z,52
2018-12-27T23:37:56.034Z,52
2018-12-27T23:42:53.932Z,52
2018-12-27T23:47:51.744Z,52
2018-12-27T23:52:50.093Z,52
2018-12-27T23:57:47.462Z,52
